Time;durP1;ratioP1;P1;durP2;ratioP2;P2;SDS_P1;SDS_P2;PMS_P1;PMS_P2;Temp;Humidity;BMP_temperature;BMP_pressure;BME280_temperature;BME280_humidity;BME280_pressure;Samples;Min_cycle;Max_cycle;Signal;HPM_P1;HPM_P2
2021/07/28 06:17:41;0.00;0.00;0.62;0.00;0.00;0.62;;;;;23.80;1.00;;;;;;2507706;46;3805;31
2021/07/28 06:22:38;220324.00;0.73;380.90;73853.00;0.25;128.42;;;;;24.00;1.00;;;;;;2266376;61;1966;-85
2021/07/28 06:30:04;207793.00;0.69;359.34;74525.00;0.25;129.58;;;;;23.60;1.00;;;;;;2270321;61;936;-88
2021/07/28 06:35:07;260355.00;0.87;449.76;70121.00;0.23;121.97;;;;;23.80;1.00;;;;;;2270569;61;1289;-92
2021/07/28 08:41:36;32585.00;0.11;57.06;0.00;0.00;0.62;;;;;22.80;1.00;;;;;;2270442;61;1943;-91
2021/07/28 09:01:29;32027.00;0.11;56.09;0.00;0.00;0.62;;;;;23.70;1.00;;;;;;2270768;61;1950;-92
2021/07/28 09:09:07;176372.00;0.59;305.24;0.00;0.00;0.62;;;;;24.40;1.00;;;;;;2271255;61;1335;-92
2021/07/28 09:14:18;342058.00;1.14;590.21;52865.00;0.18;92.14;;;;;24.00;1.00;;;;;;2275090;61;1282;-91
2021/07/28 09:24:14;310165.00;1.03;535.39;0.00;0.00;0.62;;;;;24.20;1.00;;;;;;2275219;61;950;-92
2021/07/28 09:31:42;325790.00;1.09;562.25;0.00;0.00;0.62;;;;;23.90;1.00;;;;;;2271023;61;941;-91
2021/07/28 09:39:07;45522.00;0.15;79.44;0.00;0.00;0.62;;;;;23.80;1.00;;;;;;2270927;61;1322;-91
2021/07/28 10:08:43;210015.00;0.70;363.16;69344.00;0.23;120.63;;;;;24.90;1.00;;;;;;2270679;61;1300;-90
2021/07/28 10:13:41;674715.00;2.25;1163.42;26913.00;0.09;47.24;;;;;25.40;1.00;;;;;;2270572;61;1305;-91
2021/07/28 10:18:45;295261.00;0.98;509.77;63305.00;0.21;110.19;;;;;25.40;1.00;;;;;;2496158;55;3611;31
2021/07/28 10:23:44;99228.00;0.33;172.24;0.00;0.00;0.62;;;;;25.60;1.00;;;;;;2266490;61;1935;-91
2021/07/28 10:28:40;106197.00;0.35;184.27;0.00;0.00;0.62;;;;;25.30;1.00;;;;;;2271143;61;1323;-93
2021/07/28 11:23:45;244137.00;0.81;421.87;104572.00;0.35;181.46;;;;;26.50;1.00;;;;;;2498562;41;3622;31
2021/07/28 11:28:40;8931.00;0.03;16.10;0.00;0.00;0.62;;;;;25.40;1.00;;;;;;2496816;55;3580;31
2021/07/28 11:33:36;122468.00;0.41;212.34;0.00;0.00;0.62;;;;;26.50;1.00;;;;;;2270440;61;920;-89
2021/07/28 11:43:39;272547.00;0.91;470.72;68363.00;0.23;118.93;;;;;26.20;1.00;;;;;;2270538;61;1949;-92
2021/07/28 12:21:15;545891.00;1.82;940.88;68438.00;0.23;119.06;;;;;25.70;1.00;;;;;;2266027;61;1184;-89
2021/07/28 12:23:53;232109.00;0.77;401.18;67998.00;0.23;118.30;;;;;25.90;1.00;;;;;;2264463;61;2006;-90
2021/07/28 12:26:46;322644.00;1.08;556.84;130046.00;0.43;225.41;;;;;26.10;1.00;;;;;;2264462;61;1008;-89
2021/07/28 12:29:32;146122.00;0.49;253.12;0.00;0.00;0.62;;;;;25.60;1.00;;;;;;2264162;61;1368;-89
2021/07/28 12:32:10;159426.00;0.53;276.05;0.00;0.00;0.62;;;;;26.20;1.00;;;;;;2264292;61;1554;-88
2021/07/28 12:34:39;203461.00;0.68;351.88;67294.00;0.22;117.08;;;;;26.70;1.00;;;;;;2264501;61;1127;-89
2021/07/28 12:37:19;4596.00;0.02;8.59;0.00;0.00;0.62;;;;;27.00;1.00;;;;;;2264531;61;932;-88
2021/07/28 12:39:46;86957.00;0.29;151.05;0.00;0.00;0.62;;;;;26.90;1.00;;;;;;2264411;61;1438;-89
2021/07/28 12:42:15;63759.00;0.21;110.97;0.00;0.00;0.62;;;;;27.00;1.00;;;;;;2264369;61;2161;-89
2021/07/28 12:44:42;0.00;0.00;0.62;0.00;0.00;0.62;;;;;26.80;1.00;;;;;;2264473;61;1123;-90
2021/07/28 12:47:08;162022.00;0.54;280.52;0.00;0.00;0.62;;;;;27.00;1.00;;;;;;2264434;61;1147;-88
2021/07/28 12:49:35;60078.00;0.20;104.61;0.00;0.00;0.62;;;;;27.20;1.00;;;;;;2264429;61;1387;-88
2021/07/28 12:52:02;307307.00;1.02;530.48;91606.00;0.31;159.08;;;;;27.40;1.00;;;;;;2264241;61;1675;-88
2021/07/28 12:54:31;36975.00;0.12;64.65;0.00;0.00;0.62;;;;;27.30;1.00;;;;;;2264456;61;1052;-88
2021/07/28 12:56:58;90521.00;0.30;157.21;21939.00;0.07;38.63;;;;;27.80;1.00;;;;;;2264403;61;1104;-89
2021/07/28 12:59:25;97326.00;0.32;168.96;0.00;0.00;0.62;;;;;28.20;1.00;;;;;;2264349;61;1392;-88
2021/07/28 13:01:51;357.00;0.00;1.24;0.00;0.00;0.62;;;;;28.00;1.00;;;;;;2264376;61;1998;-89
2021/07/28 13:04:19;65429.00;0.22;113.86;0.00;0.00;0.62;;;;;28.40;1.00;;;;;;2264284;61;1108;-89
2021/07/28 13:06:52;93199.00;0.31;161.83;0.00;0.00;0.62;;;;;28.20;1.00;;;;;;2264243;61;1124;-90
2021/07/28 13:09:19;5786.00;0.02;10.65;0.00;0.00;0.62;;;;;27.70;1.00;;;;;;2264351;61;1405;-90
2021/07/28 13:11:47;0.00;0.00;0.62;0.00;0.00;0.62;;;;;27.50;1.00;;;;;;2264320;61;1053;-88
2021/07/28 13:14:14;85904.00;0.29;149.23;0.00;0.00;0.62;;;;;27.80;1.00;;;;;;2264039;61;921;-89
2021/07/28 13:16:41;29253.00;0.10;51.29;0.00;0.00;0.62;;;;;27.90;1.00;;;;;;2264255;61;1152;-89
2021/07/28 13:19:08;19873.00;0.07;35.05;0.00;0.00;0.62;;;;;27.70;1.00;;;;;;2264387;61;1344;-90
2021/07/28 13:21:35;0.00;0.00;0.62;0.00;0.00;0.62;;;;;27.90;1.00;;;;;;2267221;61;1032;-89
2021/07/28 13:24:02;33591.00;0.11;58.80;0.00;0.00;0.62;;;;;28.10;1.00;;;;;;2268299;61;2014;-89
2021/07/28 13:26:29;0.00;0.00;0.62;0.00;0.00;0.62;;;;;27.90;1.00;;;;;;2257906;61;1007;-89
2021/07/28 13:28:57;127177.00;0.42;220.46;0.00;0.00;0.62;;;;;27.80;1.00;;;;;;2268285;61;1445;-90
2021/07/28 13:31:24;42806.00;0.14;74.74;0.00;0.00;0.62;;;;;27.60;1.00;;;;;;2268355;61;1091;-89
2021/07/28 13:33:51;142769.00;0.48;247.34;0.00;0.00;0.62;;;;;27.70;1.00;;;;;;2268263;61;1087;-90
2021/07/28 13:36:18;64924.00;0.22;112.99;0.00;0.00;0.62;;;;;27.00;1.00;;;;;;2268137;61;1167;-89
2021/07/28 13:38:45;90152.00;0.30;156.57;0.00;0.00;0.62;;;;;27.10;1.00;;;;;;2268295;61;1404;-88
2021/07/28 13:41:12;97668.00;0.33;169.55;0.00;0.00;0.62;;;;;27.30;1.00;;;;;;2268214;61;1666;-89
2021/07/28 13:43:39;42166.00;0.14;73.64;0.00;0.00;0.62;;;;;27.40;1.00;;;;;;2268123;61;2002;-89
2021/07/28 13:46:07;82173.00;0.27;142.79;0.00;0.00;0.62;;;;;27.40;1.00;;;;;;2268218;61;1733;-88
2021/07/28 13:48:34;50037.00;0.17;87.25;0.00;0.00;0.62;;;;;27.20;1.00;;;;;;2268186;61;1390;-88
2021/07/28 13:51:03;82787.00;0.28;143.85;0.00;0.00;0.62;;;;;27.40;1.00;;;;;;2268264;61;1100;-91
2021/07/28 13:53:30;46435.00;0.15;81.02;0.00;0.00;0.62;;;;;28.00;1.00;;;;;;2268219;61;1065;-90
2021/07/28 13:55:57;230558.00;0.77;398.51;50507.00;0.17;88.06;;;;;27.50;1.00;;;;;;2267826;61;1685;-89
2021/07/28 13:58:24;283534.00;0.95;489.61;0.00;0.00;0.62;;;;;27.20;1.00;;;;;;2267993;61;1730;-89
2021/07/28 14:00:52;68848.00;0.23;119.77;0.00;0.00;0.62;;;;;27.40;1.00;;;;;;2268273;61;1105;-89
2021/07/28 14:03:20;5857.00;0.02;10.77;0.00;0.00;0.62;;;;;27.90;1.00;;;;;;2268136;61;1919;-89
2021/07/28 14:05:47;104206.00;0.35;180.83;0.00;0.00;0.62;;;;;28.00;1.00;;;;;;2267648;61;1057;-89
2021/07/28 14:08:14;140448.00;0.47;243.34;0.00;0.00;0.62;;;;;27.60;1.00;;;;;;2267879;61;1356;-89
2021/07/28 14:10:41;89971.00;0.30;156.26;0.00;0.00;0.62;;;;;27.40;1.00;;;;;;2268143;61;1152;-90
2021/07/28 14:13:08;227317.00;0.76;392.93;40298.00;0.13;70.40;;;;;27.00;1.00;;;;;;2267967;61;989;-89
2021/07/28 14:15:35;172365.00;0.57;298.34;0.00;0.00;0.62;;;;;26.80;1.00;;;;;;2268043;61;1119;-89
2021/07/28 14:18:02;87839.00;0.29;152.58;0.00;0.00;0.62;;;;;26.90;1.00;;;;;;2268038;61;1443;-90
2021/07/28 14:20:30;221352.00;0.74;382.67;0.00;0.00;0.62;;;;;27.60;1.00;;;;;;2263987;61;1139;-89
2021/07/28 14:22:57;136216.00;0.45;236.05;0.00;0.00;0.62;;;;;27.40;1.00;;;;;;2268130;61;1917;-89
2021/07/28 14:25:24;77841.00;0.26;135.31;0.00;0.00;0.62;;;;;27.80;1.00;;;;;;2267924;61;1006;-89
2021/07/28 14:27:51;162962.00;0.54;282.14;55723.00;0.19;97.08;;;;;28.00;1.00;;;;;;2267914;61;1451;-89
2021/07/28 14:30:18;84255.00;0.28;146.39;0.00;0.00;0.62;;;;;27.90;1.00;;;;;;2268019;61;880;-88
2021/07/28 14:32:45;125730.00;0.42;217.97;0.00;0.00;0.62;;;;;27.10;1.00;;;;;;2268136;61;1167;-88
2021/07/28 14:35:12;242960.00;0.81;419.84;8583.00;0.03;15.49;;;;;26.90;1.00;;;;;;2267963;61;934;-88
2021/07/28 14:37:41;265.00;0.00;1.08;0.00;0.00;0.62;;;;;27.10;1.00;;;;;;2267901;61;1119;-88
2021/07/28 14:40:08;138711.00;0.46;240.35;0.00;0.00;0.62;;;;;27.20;1.00;;;;;;2267960;61;1459;-88
2021/07/28 14:42:35;73653.00;0.25;128.07;0.00;0.00;0.62;;;;;27.50;1.00;;;;;;2267625;61;1992;-89
2021/07/28 14:45:02;33465.00;0.11;58.58;0.00;0.00;0.62;;;;;27.20;1.00;;;;;;2267715;61;1121;-89
2021/07/28 14:47:29;101496.00;0.34;176.15;0.00;0.00;0.62;;;;;27.30;1.00;;;;;;2267794;61;1112;-89
2021/07/28 14:49:56;151071.00;0.50;261.65;0.00;0.00;0.62;;;;;27.40;1.00;;;;;;2267619;61;1272;-88
2021/07/28 14:52:23;124294.00;0.41;215.49;50704.00;0.17;88.40;;;;;27.40;1.00;;;;;;2268001;61;1077;-89
2021/07/28 14:54:51;60218.00;0.20;104.85;0.00;0.00;0.62;;;;;27.30;1.00;;;;;;2267980;61;1126;-88
2021/07/28 14:57:19;150757.00;0.50;261.11;0.00;0.00;0.62;;;;;27.70;1.00;;;;;;2267787;61;1013;-89
2021/07/28 14:59:46;126529.00;0.42;219.34;0.00;0.00;0.62;;;;;27.70;1.00;;;;;;2267903;61;1369;-89
2021/07/28 15:02:15;14442.00;0.05;25.64;0.00;0.00;0.62;;;;;27.40;1.00;;;;;;2268078;61;916;-89
2021/07/28 15:04:42;0.00;0.00;0.62;0.00;0.00;0.62;;;;;27.40;1.00;;;;;;2267912;61;2025;-88
2021/07/28 15:07:09;115390.00;0.38;200.13;0.00;0.00;0.62;;;;;27.30;1.00;;;;;;2267968;61;1125;-88
2021/07/28 15:09:35;55543.00;0.19;96.77;0.00;0.00;0.62;;;;;27.20;1.00;;;;;;2267839;61;1403;-89
2021/07/28 15:12:05;54984.00;0.18;95.80;0.00;0.00;0.62;;;;;27.70;1.00;;;;;;2267988;61;1095;-89
2021/07/28 15:14:32;49543.00;0.17;86.40;0.00;0.00;0.62;;;;;27.90;1.00;;;;;;2267985;61;1114;-88
2021/07/28 15:16:59;81767.00;0.27;142.09;0.00;0.00;0.62;;;;;27.90;1.00;;;;;;2268004;61;1139;-88
2021/07/28 15:19:26;6595.00;0.02;12.05;0.00;0.00;0.62;;;;;27.60;1.00;;;;;;2267890;61;1401;-89
2021/07/28 15:21:53;49422.00;0.16;86.19;0.00;0.00;0.62;;;;;27.60;1.00;;;;;;2267957;61;1057;-89
2021/07/28 15:24:20;66918.00;0.22;116.43;0.00;0.00;0.62;;;;;27.40;1.00;;;;;;2268027;61;1998;-90
2021/07/28 15:26:47;10897.00;0.04;19.50;0.00;0.00;0.62;;;;;28.00;1.00;;;;;;2268067;61;1105;-90
2021/07/28 15:29:15;12165.00;0.04;21.70;0.00;0.00;0.62;;;;;28.60;1.00;;;;;;2268051;61;1380;-89
2021/07/28 15:31:44;75669.00;0.25;131.56;0.00;0.00;0.62;;;;;28.20;1.00;;;;;;2268046;61;1071;-90
2021/07/28 15:34:11;41565.00;0.14;72.60;0.00;0.00;0.62;;;;;27.70;1.00;;;;;;2268054;61;942;-89
2021/07/28 15:36:38;41912.00;0.14;73.20;0.00;0.00;0.62;;;;;27.70;1.00;;;;;;2268055;61;1071;-89
2021/07/28 15:40:00;68193.00;0.23;118.64;0.00;0.00;0.62;;;;;28.30;1.00;;;;;;2268017;61;1405;-89
2021/07/28 15:42:27;272819.00;0.91;471.19;65245.00;0.22;113.54;;;;;28.70;1.00;;;;;;2268081;61;1145;-90
2021/07/28 15:44:56;168504.00;0.56;291.69;65792.00;0.22;114.49;;;;;29.20;1.00;;;;;;2267946;61;1928;-90
2021/07/28 15:47:23;275061.00;0.92;475.05;58325.00;0.19;101.58;;;;;28.40;1.00;;;;;;2267948;61;1609;-89
2021/07/28 15:49:51;492638.00;1.64;849.15;82422.00;0.27;143.22;;;;;27.40;1.00;;;;;;2267911;61;1785;-90
2021/07/28 15:52:18;224926.00;0.75;388.82;65724.00;0.22;114.37;;;;;27.20;1.00;;;;;;2257958;61;1049;-90
2021/07/28 15:54:45;526588.00;1.76;907.61;85878.00;0.29;149.19;;;;;27.10;1.00;;;;;;2269406;61;993;-90
2021/07/28 15:57:12;176629.00;0.59;305.68;63110.00;0.21;109.85;;;;;27.10;1.00;;;;;;2269384;61;1150;-89
2021/07/28 15:59:39;528033.00;1.76;910.10;174008.00;0.58;301.17;;;;;27.40;1.00;;;;;;2269344;61;1300;-91
2021/07/28 16:02:08;209625.00;0.70;362.49;63410.00;0.21;110.37;;;;;28.10;1.00;;;;;;2269280;61;1056;-90
2021/07/28 16:04:35;216508.00;0.72;374.33;64632.00;0.22;112.48;;;;;27.70;1.00;;;;;;2262181;61;2005;-90
2021/07/28 16:07:02;430022.00;1.43;741.42;66227.00;0.22;115.24;;;;;27.40;1.00;;;;;;2269302;61;843;-89
2021/07/28 16:09:29;327846.00;1.09;565.78;55237.00;0.18;96.24;;;;;27.50;1.00;;;;;;2269313;61;1407;-90
2021/07/28 16:11:56;228982.00;0.76;395.80;75314.00;0.25;130.94;;;;;27.10;1.00;;;;;;2269007;61;1128;-89
2021/07/28 16:14:49;282086.00;0.94;487.12;63919.00;0.21;111.25;;;;;27.00;1.00;;;;;;2269180;61;1904;-88
2021/07/28 16:17:34;76339.00;0.25;132.71;0.00;0.00;0.62;;;;;26.90;1.00;;;;;;2269278;61;1010;-88
2021/07/28 16:20:07;360633.00;1.20;622.14;68521.00;0.23;119.20;;;;;27.00;1.00;;;;;;2269237;61;1420;-88
2021/07/28 16:22:41;159242.00;0.53;275.73;0.00;0.00;0.62;;;;;27.00;1.00;;;;;;2269261;61;1033;-88
2021/07/28 16:25:15;183684.00;0.61;317.83;68951.00;0.23;119.95;;;;;27.10;1.00;;;;;;2269100;61;2018;-88
2021/07/28 16:27:43;273520.00;0.91;472.40;65326.00;0.22;113.68;;;;;27.00;1.00;;;;;;2269001;61;1246;-89
2021/07/28 16:30:11;195109.00;0.65;337.50;67113.00;0.22;116.77;;;;;27.00;1.00;;;;;;2268976;61;1140;-88
2021/07/28 16:32:40;289512.00;0.97;499.89;48054.00;0.16;83.82;;;;;27.10;1.00;;;;;;2268985;61;1848;-89
2021/07/28 16:35:07;171236.00;0.57;296.40;64520.00;0.22;112.29;;;;;27.40;1.00;;;;;;2268993;61;1131;-89
2021/07/28 16:37:34;188020.00;0.63;325.30;65918.00;0.22;114.71;;;;;27.30;1.00;;;;;;2268143;61;1129;-89
2021/07/28 16:40:03;195210.00;0.65;337.68;63897.00;0.21;111.21;;;;;27.10;1.00;;;;;;2258485;61;1321;-89
2021/07/28 16:42:30;236487.00;0.79;408.71;60225.00;0.20;104.87;;;;;26.80;1.00;;;;;;2268992;61;1676;-89
2021/07/28 16:44:57;190014.00;0.63;328.73;61792.00;0.21;107.57;;;;;26.70;1.00;;;;;;2269168;61;2005;-90
2021/07/28 16:47:24;208009.00;0.69;359.71;64723.00;0.22;112.64;;;;;26.70;1.00;;;;;;2261959;61;1149;-90
2021/07/28 16:49:53;249986.00;0.83;431.93;65270.00;0.22;113.59;;;;;26.60;1.00;;;;;;2265241;61;1415;-89
2021/07/28 16:52:20;162393.00;0.54;281.16;63100.00;0.21;109.84;;;;;26.80;1.00;;;;;;2269287;61;900;-89
2021/07/28 16:54:47;448565.00;1.50;773.31;77945.00;0.26;135.49;;;;;27.40;1.00;;;;;;2269050;61;1556;-89
2021/07/28 16:57:14;566539.00;1.89;976.48;66668.00;0.22;116.00;;;;;27.00;1.00;;;;;;2269202;61;1047;-89
2021/07/28 16:59:40;296643.00;0.99;512.15;62881.00;0.21;109.46;;;;;26.60;1.00;;;;;;2269120;61;1389;-89
2021/07/28 17:02:08;177828.00;0.59;307.75;59125.00;0.20;102.96;;;;;27.10;1.00;;;;;;2269154;61;1083;-90
2021/07/28 17:04:34;269188.00;0.90;464.95;62775.00;0.21;109.27;;;;;27.50;1.00;;;;;;2268545;61;1923;-89
2021/07/28 17:07:05;181795.00;0.61;314.58;50472.00;0.17;88.00;;;;;27.70;1.00;;;;;;2268356;61;1114;-90
2021/07/28 17:09:32;170665.00;0.57;295.41;59735.00;0.20;104.02;;;;;27.70;1.00;;;;;;2268437;61;1364;-90
2021/07/28 17:11:59;212486.00;0.71;367.41;59500.00;0.20;103.61;;;;;27.80;1.00;;;;;;2268443;61;1018;-88
2021/07/28 17:14:26;182250.00;0.61;315.36;67251.00;0.22;117.01;;;;;27.80;1.00;;;;;;2268332;61;972;-89
2021/07/28 17:16:53;179661.00;0.60;310.91;69134.00;0.23;120.26;;;;;27.60;1.00;;;;;;2268044;61;973;-89
2021/07/28 17:19:20;170825.00;0.57;295.69;67074.00;0.22;116.70;;;;;27.70;1.00;;;;;;2268376;61;1295;-89
2021/07/28 17:21:47;170573.00;0.57;295.25;71408.00;0.24;124.19;;;;;27.40;1.00;;;;;;2261103;61;1050;-89
2021/07/28 17:24:16;172480.00;0.57;298.54;66028.00;0.22;114.90;;;;;27.00;1.00;;;;;;2268332;61;1915;-89
2021/07/28 17:26:43;177283.00;0.59;306.81;67596.00;0.23;117.61;;;;;27.00;1.00;;;;;;2268375;61;1051;-88
2021/07/28 17:29:11;0.00;0.00;0.62;0.00;0.00;0.62;;;;;27.00;1.00;;;;;;2267928;61;1455;-89
2021/07/28 17:31:38;117990608.00;393.30;66539072.00;0.00;0.00;0.62;;;;;27.10;1.00;;;;;;2268436;61;1026;-89
2021/07/28 17:34:06;0.00;0.00;0.62;0.00;0.00;0.62;;;;;27.00;1.00;;;;;;2268379;61;1026;-89
2021/07/28 17:36:33;107943.00;0.36;187.28;0.00;0.00;0.62;;;;;27.10;1.00;;;;;;2255573;61;1031;-88
2021/07/28 17:39:00;6777.00;0.02;12.36;0.00;0.00;0.62;;;;;27.20;1.00;;;;;;2252391;61;1417;-89
2021/07/28 17:41:28;50546.00;0.17;88.13;0.00;0.00;0.62;;;;;27.00;1.00;;;;;;2243970;61;1709;-88
2021/07/28 17:43:55;32081.00;0.11;56.18;0.00;0.00;0.62;;;;;27.00;1.00;;;;;;2244037;61;2001;-88
2021/07/28 17:46:23;0.00;0.00;0.62;0.00;0.00;0.62;;;;;27.30;1.00;;;;;;2243989;61;1695;-88
2021/07/28 17:48:55;0.00;0.00;0.62;0.00;0.00;0.62;;;;;27.40;1.00;;;;;;2243970;61;1372;-89
2021/07/28 17:51:24;0.00;0.00;0.62;0.00;0.00;0.62;;;;;27.40;1.00;;;;;;2244104;61;1101;-89
2021/07/28 17:53:51;5984.00;0.02;10.99;0.00;0.00;0.62;;;;;27.50;1.00;;;;;;2245923;61;1019;-89
2021/07/28 17:56:18;41114.00;0.14;71.82;0.00;0.00;0.62;;;;;27.60;1.00;;;;;;2255765;61;1656;-89
2021/07/28 17:58:47;114644.00;0.38;198.84;0.00;0.00;0.62;;;;;27.80;1.00;;;;;;2258100;61;1314;-89
2021/07/28 18:01:14;6521.00;0.02;11.92;0.00;0.00;0.62;;;;;27.80;1.00;;;;;;2268378;61;905;-89
2021/07/28 18:04:03;4380.00;0.01;8.21;0.00;0.00;0.62;;;;;27.80;1.00;;;;;;2261173;61;1915;-90
2021/07/28 18:06:41;171825.00;0.57;297.41;65716.00;0.22;114.36;;;;;27.60;1.00;;;;;;2268217;61;1012;-89
2021/07/28 18:09:08;280333.00;0.93;484.11;60682.00;0.20;105.66;;;;;27.40;1.00;;;;;;2268289;61;1470;-90
2021/07/28 18:11:35;183987.00;0.61;318.36;63436.00;0.21;110.42;;;;;27.10;1.00;;;;;;2268237;61;1073;-89
2021/07/28 18:14:03;181487.00;0.60;314.05;64537.00;0.22;112.32;;;;;26.70;1.00;;;;;;2268307;61;1076;-89
2021/07/28 18:16:30;256521.00;0.86;443.17;73562.00;0.25;127.92;;;;;26.50;1.00;;;;;;2267983;61;1128;-89
2021/07/28 18:21:25;786484.00;2.62;1357.56;62098.00;0.21;108.10;;;;;26.10;1.00;;;;;;2278389;61;1322;-90
2021/07/28 18:26:26;1508943.00;5.03;2659.96;66832.00;0.22;116.29;;;;;26.30;1.00;;;;;;2269824;61;1399;-89
2021/07/28 18:31:38;481597.00;1.61;830.15;59406.00;0.20;103.45;;;;;26.80;1.00;;;;;;2255853;61;1013;-92
2021/07/28 18:34:08;350733.00;1.17;605.12;66098.00;0.22;115.02;;;;;26.60;1.00;;;;;;2246038;61;1013;-89
2021/07/28 18:36:35;552593.00;1.84;952.43;98628.00;0.33;171.20;;;;;26.40;1.00;;;;;;2255910;61;1106;-88
2021/07/28 18:39:03;382465.00;1.27;659.66;64835.00;0.22;112.83;;;;;26.20;1.00;;;;;;2245997;61;1353;-89
2021/07/28 18:41:30;253443.00;0.84;437.87;66879.00;0.22;116.37;;;;;25.90;1.00;;;;;;2244004;61;1024;-88
2021/07/28 18:43:57;387326.00;1.29;668.02;68768.00;0.23;119.63;;;;;25.90;1.00;;;;;;2237444;61;1911;-89
2021/07/28 18:46:24;308056.00;1.03;531.77;67015.00;0.22;116.60;;;;;25.80;1.00;;;;;;2237465;61;999;-90
2021/07/28 18:48:52;659936.00;2.20;1137.83;69338.00;0.23;120.62;;;;;25.80;1.00;;;;;;2234138;62;1476;-88
2021/07/28 18:51:19;467028.00;1.56;805.08;110955.00;0.37;192.48;;;;;25.90;1.00;;;;;;2237424;61;1021;-88
2021/07/28 18:53:48;428944.00;1.43;739.57;59259.00;0.20;103.20;;;;;26.10;1.00;;;;;;2243961;61;931;-87
2021/07/28 18:56:17;282766.00;0.94;488.29;68033.00;0.23;118.36;;;;;25.80;1.00;;;;;;2244049;61;1121;-88
2021/07/28 18:58:44;261119.00;0.87;451.07;67584.00;0.23;117.59;;;;;25.90;1.00;;;;;;2245628;61;1349;-89
2021/07/28 19:01:11;434633.00;1.45;749.35;64115.00;0.21;111.59;;;;;25.70;1.00;;;;;;2243885;61;1011;-88
2021/07/28 19:03:38;540378.00;1.80;931.37;76691.00;0.26;133.32;;;;;25.10;1.00;;;;;;2243975;61;2001;-91
2021/07/28 19:06:06;553321.00;1.84;953.68;65408.00;0.22;113.82;;;;;25.00;1.00;;;;;;2243980;61;1004;-87
2021/07/28 19:08:33;649054.00;2.16;1119.00;61353.00;0.20;106.82;;;;;24.80;1.00;;;;;;2243026;61;1411;-87
2021/07/28 19:11:02;360985.00;1.20;622.74;67894.00;0.23;118.12;;;;;24.90;1.00;;;;;;2245262;61;938;-88
2021/07/28 19:13:30;234202.00;0.78;404.78;62173.00;0.21;108.23;;;;;24.90;1.00;;;;;;2251864;61;1029;-91
2021/07/28 19:15:57;165851.00;0.55;287.12;70217.00;0.23;122.14;;;;;24.20;1.00;;;;;;2243810;62;916;-90
2021/07/28 19:18:24;459803.00;1.53;792.65;141370.00;0.47;244.93;;;;;24.10;1.00;;;;;;2238861;61;1373;-90
2021/07/28 19:24:07;337668.00;1.13;582.67;0.00;0.00;0.62;;;;;23.80;1.00;;;;;;2239856;62;1977;-90
2021/07/28 19:26:56;360609.00;1.20;622.10;7329.00;0.02;13.32;;;;;23.50;1.00;;;;;;2243489;61;1108;-91
2021/07/28 19:29:23;347328.00;1.16;599.27;0.00;0.00;0.62;;;;;23.40;1.00;;;;;;2235827;62;1332;-90
2021/07/28 19:31:50;177532.00;0.59;307.24;0.00;0.00;0.62;;;;;23.70;1.00;;;;;;2235963;62;1041;-90
2021/07/28 19:34:18;265061.00;0.88;457.85;150.00;0.00;0.88;;;;;23.70;1.00;;;;;;2240598;62;1060;-90
2021/07/28 19:36:45;58730.00;0.20;102.28;0.00;0.00;0.62;;;;;23.70;1.00;;;;;;2235878;62;975;-89
2021/07/28 19:39:13;117131.00;0.39;203.13;0.00;0.00;0.62;;;;;23.80;1.00;;;;;;2228623;62;1315;-90
2021/07/28 19:41:40;127728.00;0.43;221.41;0.00;0.00;0.62;;;;;24.00;1.00;;;;;;2230164;62;1011;-90
2021/07/28 19:44:07;154308.00;0.51;267.23;0.00;0.00;0.62;;;;;24.00;1.00;;;;;;2239847;62;1993;-89
2021/07/28 19:46:39;296365.00;0.99;511.67;59426.00;0.20;103.48;;;;;23.80;1.00;;;;;;2234774;61;990;-91
2021/07/28 19:49:07;0.00;0.00;0.62;0.00;0.00;0.62;;;;;23.60;1.00;;;;;;2251743;61;1424;-90
2021/07/28 19:51:34;0.00;0.00;0.62;0.00;0.00;0.62;;;;;23.50;1.00;;;;;;2251697;61;998;-90
2021/07/28 19:54:01;0.00;0.00;0.62;0.00;0.00;0.62;;;;;23.40;1.00;;;;;;2252018;61;992;-90
2021/07/28 19:56:30;0.00;0.00;0.62;0.00;0.00;0.62;;;;;23.60;1.00;;;;;;2263741;61;996;-88
2021/07/28 19:58:57;150368.00;0.50;260.44;0.00;0.00;0.62;;;;;24.00;1.00;;;;;;2260274;61;1456;-88
2021/07/28 20:01:23;130306.00;0.43;225.86;0.00;0.00;0.62;;;;;24.10;1.00;;;;;;2260336;61;1024;-88
2021/07/28 20:03:50;178530.00;0.60;308.96;0.00;0.00;0.62;;;;;24.20;1.00;;;;;;2263705;61;1052;-89
2021/07/28 20:06:17;127148.00;0.42;220.41;0.00;0.00;0.62;;;;;24.10;1.00;;;;;;2257002;61;2018;-89
2021/07/28 20:08:44;44632.00;0.15;77.90;0.00;0.00;0.62;;;;;24.00;1.00;;;;;;2260789;61;1329;-90
2021/07/28 20:11:11;69780.00;0.23;121.38;0.00;0.00;0.62;;;;;24.10;1.00;;;;;;2268152;61;920;-89
2021/07/28 20:13:40;213407.00;0.71;369.00;0.00;0.00;0.62;;;;;24.10;1.00;;;;;;2268141;61;1026;-89
2021/07/28 20:16:08;18293.00;0.06;32.31;0.00;0.00;0.62;;;;;24.10;1.00;;;;;;2268191;61;922;-88
2021/07/28 20:18:35;114812.00;0.38;199.13;32744.00;0.11;57.33;;;;;24.30;1.00;;;;;;2261083;61;1353;-90
2021/07/28 20:21:02;50856.00;0.17;88.67;0.00;0.00;0.62;;;;;24.20;1.00;;;;;;2268159;61;751;-88
2021/07/28 20:23:51;164198.00;0.55;284.27;0.00;0.00;0.62;;;;;24.50;1.00;;;;;;2267716;61;971;-89
2021/07/28 20:26:18;14042.00;0.05;24.95;0.00;0.00;0.62;;;;;24.60;1.00;;;;;;2260980;61;1923;-89
2021/07/28 20:28:47;25374.00;0.08;44.58;0.00;0.00;0.62;;;;;24.70;1.00;;;;;;2267518;61;1394;-89
2021/07/28 20:31:16;69861.00;0.23;121.52;0.00;0.00;0.62;;;;;24.70;1.00;;;;;;2267630;61;944;-89
2021/07/28 20:33:45;57802.00;0.19;100.68;0.00;0.00;0.62;;;;;24.60;1.00;;;;;;2267683;61;1018;-89
2021/07/28 20:36:14;58606.00;0.20;102.07;0.00;0.00;0.62;;;;;24.50;1.00;;;;;;2260941;61;968;-88
2021/07/28 20:38:41;121142.00;0.40;210.05;0.00;0.00;0.62;;;;;24.60;1.00;;;;;;2257668;61;1419;-88
2021/07/28 20:41:08;205829.00;0.69;355.96;0.00;0.00;0.62;;;;;24.70;1.00;;;;;;2268351;61;1065;-89
2021/07/28 20:43:37;64482.00;0.21;112.22;0.00;0.00;0.62;;;;;24.70;1.00;;;;;;2260046;61;1024;-89
2021/07/28 20:46:05;197872.00;0.66;342.26;0.00;0.00;0.62;;;;;24.70;1.00;;;;;;2263044;61;1924;-89
2021/07/28 20:48:32;112244.00;0.37;194.70;0.00;0.00;0.62;;;;;24.80;1.00;;;;;;2271139;61;1443;-90
2021/07/28 20:50:59;161169.00;0.54;279.05;0.00;0.00;0.62;;;;;24.80;1.00;;;;;;2272266;61;1571;-90
2021/07/28 20:53:26;96877.00;0.32;168.18;0.00;0.00;0.62;;;;;24.80;1.00;;;;;;2272771;61;1047;-90
2021/07/28 20:55:53;198680.00;0.66;343.65;65049.00;0.22;113.20;;;;;24.70;1.00;;;;;;2272653;61;976;-88
2021/07/28 20:58:22;6314.00;0.02;11.56;0.00;0.00;0.62;;;;;24.70;1.00;;;;;;2262399;61;1445;-89
2021/07/28 21:00:49;80431.00;0.27;139.78;0.00;0.00;0.62;;;;;24.70;1.00;;;;;;2272794;61;986;-89
2021/07/28 21:03:20;147010.00;0.49;254.65;0.00;0.00;0.62;;;;;24.70;1.00;;;;;;2272804;61;1038;-88
2021/07/28 21:05:47;218168.00;0.73;377.19;0.00;0.00;0.62;;;;;24.70;1.00;;;;;;2260144;61;1923;-89
2021/07/28 21:08:14;163614.00;0.55;283.27;0.00;0.00;0.62;;;;;24.80;1.00;;;;;;2260207;61;1308;-90
2021/07/28 21:10:45;109777.00;0.37;190.45;0.00;0.00;0.62;;;;;24.80;1.00;;;;;;2260210;61;1039;-89
2021/07/28 21:13:12;133708.00;0.45;231.72;0.00;0.00;0.62;;;;;24.80;1.00;;;;;;2260256;61;1026;-90
2021/07/28 21:15:39;215532.00;0.72;372.66;0.00;0.00;0.62;;;;;24.80;1.00;;;;;;2260247;61;997;-89
2021/07/28 21:18:09;152512.00;0.51;264.14;0.00;0.00;0.62;;;;;24.70;1.00;;;;;;2256784;61;1318;-89
2021/07/28 21:20:38;137940.00;0.46;239.02;0.00;0.00;0.62;;;;;24.60;1.00;;;;;;2260226;61;1016;-89
2021/07/28 21:23:05;172947.00;0.58;299.34;0.00;0.00;0.62;;;;;24.60;1.00;;;;;;2250138;61;988;-90
2021/07/28 21:25:35;216214.00;0.72;373.83;40489.00;0.13;70.73;;;;;24.60;1.00;;;;;;2260133;61;1923;-90
2021/07/28 21:28:02;93302.00;0.31;162.01;0.00;0.00;0.62;;;;;24.70;1.00;;;;;;2260111;61;1396;-88
2021/07/28 21:30:29;141076.00;0.47;244.43;0.00;0.00;0.62;;;;;24.70;1.00;;;;;;2260035;61;989;-89
2021/07/28 21:33:00;149301.00;0.50;258.60;0.00;0.00;0.62;;;;;24.70;1.00;;;;;;2250251;61;1025;-89
2021/07/28 21:35:30;47487.00;0.16;82.84;0.00;0.00;0.62;;;;;24.80;1.00;;;;;;2260060;61;1021;-88
2021/07/28 21:37:59;178397.00;0.59;308.73;0.00;0.00;0.62;;;;;24.60;1.00;;;;;;2260101;61;1319;-89
2021/07/28 21:40:27;142189.00;0.47;246.34;0.00;0.00;0.62;;;;;24.50;1.00;;;;;;2254369;61;946;-91